TimeCDT,TemperatureF,Dew PointF,Humidity,Sea Level PressureIn,VisibilityMPH,Wind Direction,Wind SpeedMPH,Gust SpeedMPH,PrecipitationIn,Events,Conditions,WindDirDegrees,DateUTC
12:53 AM,45.0,39.0,80,30.06,10.0,North,4.6,-,N/A,,Clear,350,2013-05-05 05:53:00
1:53 AM,45.0,39.0,80,30.06,10.0,North,5.8,-,N/A,,Clear,350,2013-05-05 06:53:00
2:53 AM,45.0,39.0,80,30.05,10.0,North,6.9,-,N/A,,Clear,350,2013-05-05 07:53:00
3:53 AM,44.1,39.0,82,30.06,10.0,North,5.8,-,N/A,,Clear,350,2013-05-05 08:53:00
4:53 AM,43.0,39.0,86,30.08,10.0,NNW,5.8,-,N/A,,Clear,340,2013-05-05 09:53:00
5:53 AM,44.1,39.0,82,30.09,10.0,NW,3.5,-,N/A,,Mostly Cloudy,310,2013-05-05 10:53:00
6:39 AM,46.4,39.2,76,30.13,10.0,NW,4.6,-,N/A,,Overcast,310,2013-05-05 11:39:00
6:53 AM,46.9,39.9,77,30.11,10.0,NNW,4.6,-,N/A,,Overcast,340,2013-05-05 11:53:00
7:53 AM,46.9,41.0,80,30.14,10.0,NW,4.6,-,N/A,,Overcast,310,2013-05-05 12:53:00
8:53 AM,48.9,39.9,71,30.16,10.0,NNW,8.1,-,N/A,,Overcast,340,2013-05-05 13:53:00
9:53 AM,51.1,41.0,68,30.17,10.0,NNE,9.2,-,N/A,,Overcast,20,2013-05-05 14:53:00
10:53 AM,52.0,41.0,66,30.19,10.0,North,8.1,-,N/A,,Overcast,360,2013-05-05 15:53:00
11:53 AM,54.0,42.1,64,30.19,10.0,North,6.9,-,N/A,,Overcast,350,2013-05-05 16:53:00
1:53 PM,62.1,44.1,52,30.13,10.0,NNW,10.4,16.1,N/A,,Clear,330,2013-05-05 18:53:00
2:53 PM,63.0,44.1,50,30.10,10.0,NE,6.9,-,N/A,,Clear,40,2013-05-05 19:53:00
3:53 PM,66.0,46.0,48,30.07,10.0,NNE,8.1,-,N/A,,Clear,20,2013-05-05 20:53:00
4:53 PM,69.1,45.0,42,30.05,10.0,North,10.4,17.3,N/A,,Clear,10,2013-05-05 21:53:00
5:53 PM,69.1,46.0,44,30.04,10.0,North,8.1,-,N/A,,Clear,360,2013-05-05 22:53:00
6:53 PM,68.0,46.0,45,30.04,10.0,North,5.8,-,N/A,,Clear,360,2013-05-05 23:53:00
7:53 PM,64.0,46.9,54,30.03,10.0,NE,4.6,-,N/A,,Clear,40,2013-05-06 00:53:00
8:53 PM,61.0,46.9,60,30.03,10.0,NE,8.1,-,N/A,,Clear,50,2013-05-06 01:53:00
9:53 PM,57.0,46.9,69,30.05,10.0,East,6.9,-,N/A,,Clear,90,2013-05-06 02:53:00
10:53 PM,54.0,46.0,75,30.06,10.0,East,8.1,-,N/A,,Clear,100,2013-05-06 03:53:00
11:53 PM,52.0,46.0,80,30.07,10.0,East,6.9,-,N/A,,Clear,90,2013-05-06 04:53:00